Gouwestroom — PDGR — position and weather

sailwx.info

Track history (hours):
 
Tides and Currents Weather Stations Pressure Air Temp Water Temp Dewpoint Dewpoint Depression Visibility Wind Speed Wind Dir Waves Ship Positions

Gouwestroom

Last reported at 2014-Jun-04 13:27 UTC. Time now 2014-Jul-25 13:42 UTC.
Position N 51°49' E 004°53'.
Warning: this ship's position is 51 days out of date.

Length 20 m; draft 2.4 m.

Type: Tug. MMSI: 246166000.

Date/timePositionNaut miles runAvg speedWind from/ knotsBaromVisibWave heightAir tempDewpointWater temp
2014-Jun-04 13:27N 51°49' E 004°53'0 0.0
2014-Jun-04 12:30N 51°49' E 004°53'0 0.0
2014-Jun-04 11:33N 51°49' E 004°53'0 0.0
2014-Jun-04 10:19N 51°49' E 004°53'0 0.0
2014-Jun-04 09:33N 51°49' E 004°53'0 0.0
2014-Jun-04 08:07N 51°49' E 004°53'0 0.0
2014-Jun-04 07:33N 51°49' E 004°53'0 0.0
2014-Jun-04 06:33N 51°49' E 004°53'0 0.0
2014-Jun-04 05:32N 51°49' E 004°53'0 0.0
2014-Jun-04 04:33N 51°49' E 004°53'0 0.0
2014-Jun-04 03:32N 51°49' E 004°53'0 0.0
2014-Jun-04 02:33N 51°49' E 004°53'0 0.0
2014-Jun-04 01:33N 51°49' E 004°53'0 0.0
2014-Jun-04 00:33N 51°49' E 004°53'0 0.0
2014-Jun-03 23:33N 51°49' E 004°53'0 0.0
2014-Jun-03 22:33N 51°49' E 004°53'0 0.0
2014-Jun-03 21:33N 51°49' E 004°53'0 0.0
2014-Jun-03 20:32N 51°49' E 004°53'0 0.0
2014-Jun-03 19:33N 51°49' E 004°53'0 0.0
2014-Jun-03 18:33N 51°49' E 004°53'0 0.0
2014-Jun-03 17:31N 51°49' E 004°53'0 0.0
2014-Jun-03 14:05N 51°49' E 004°53'0 0.0
2014-Jun-03 13:33N 51°49' E 004°53'0 0.0
2014-Jun-03 12:33N 51°49' E 004°53'0 0.0
2014-Jun-03 11:16N 51°49' E 004°53'0 0.0
2014-Jun-03 10:32N 51°49' E 004°53'0 0.0
2014-Jun-03 09:30N 51°49' E 004°53'0 0.0
2014-Jun-03 08:15N 51°49' E 004°53'0 0.0
2014-Jun-03 07:17N 51°49' E 004°53'0 0.0
2014-Jun-03 05:28N 51°49' E 004°53'0 0.0
2014-Jun-03 04:28N 51°49' E 004°53'1 0.8
2014-Jun-03 03:33N 51°49' E 004°51'0 0.3
2014-Jun-03 02:33N 51°49' E 004°51'6 4.2
2014-Jun-03 01:09N 51°49' E 004°41'2 3.4
2014-Jun-03 00:32N 51°51' E 004°40'4 3.7
2014-Jun-02 23:34N 51°54' E 004°36'3 3.3
2014-Jun-02 22:33N 51°55' E 004°31'4 3.8
2014-Jun-02 21:34N 51°54' E 004°25'4 4.2
2014-Jun-02 20:34N 51°54' E 004°18'4 4.1
2014-Jun-02 19:33N 51°56' E 004°12'5 4.7
2014-Jun-02 18:34N 51°59' E 004°06'35 5.8
2014-Jun-02 12:33N 51°52' E 003°10'29 4.9
2014-Jun-02 06:32N 51°38' E 002°28'6 5.8
2014-Jun-02 05:33N 51°34' E 002°23'6 6.2
2014-Jun-02 04:32N 51°29' E 002°16'6 6.4
2014-Jun-02 03:33N 51°23' E 002°12'9 6.9
2014-Jun-02 02:17N 51°16' E 002°05'6 7.1
2014-Jun-02 01:27N 51°12' E 001°58'6 6.4
2014-Jun-02 00:31N 51°08' E 001°50'9 4.7
2014-Jun-01 22:29N 51°01' E 001°40'6 2.8
2014-Jun-01 20:30N 50°57' E 001°34'  
2014-May-29 18:18N 50°34' W 000°46'9 7.9
2014-May-29 17:11N 50°40' W 000°56'5 7.8
2014-May-29 16:33N 50°43' W 001°02'8 7.8
2014-May-29 15:33N 50°46' W 001°14'7 6.5
2014-May-29 14:34N 50°51' W 001°20'4 1.2
2014-May-29 11:33N 50°54' W 001°24'3 2.6
2014-May-29 10:33N 50°51' W 001°21'6 6.0
2014-May-29 09:34N 50°48' W 001°14'6 5.5
2014-May-29 08:34N 50°45' W 001°06'4 4.1
2014-May-29 07:34N 50°43' W 001°00'4 4.2
2014-May-29 06:33N 50°41' W 000°55'4 4.2
2014-May-29 05:33N 50°38' W 000°49'6 5.6
2014-May-29 04:33N 50°37' W 000°41'4 5.0
2014-May-29 03:51N 50°37' W 000°35'2 6.9
2014-May-29 03:33N 50°36' W 000°32'27 6.6
2014-May-28 23:30N 50°34' E 000°10'5 5.0
2014-May-28 22:33N 50°36' E 000°17'4 4.0
2014-May-28 21:33N 50°37' E 000°23'3 3.2
2014-May-28 20:33N 50°38' E 000°28'4 3.6
2014-May-28 19:33N 50°39' E 000°33'5 4.7
2014-May-28 18:33N 50°41' E 000°40'6 6.2
2014-May-28 17:33N 50°45' E 000°48'7 6.8
2014-May-28 16:31N 50°49' E 000°57'23 4.6
2014-May-28 11:32N 51°03' E 001°25'3 3.2
2014-May-28 10:33N 51°05' E 001°29'5 4.8
2014-May-28 09:33N 51°08' E 001°35'7 6.6
2014-May-28 08:33N 51°13' E 001°43'95 5.1
2014-May-27 14:04N 52°02' E 003°53'3 5.0
2014-May-27 13:31N 52°01' E 003°57'2 4.5
2014-May-27 13:02N 52°01' E 003°60'2 3.7
2014-May-27 12:24N 51°59' E 004°03'3 4.9
2014-May-27 11:53N 51°59' E 004°07'2 4.7
2014-May-27 11:33N 51°58' E 004°09'3 5.2
2014-May-27 11:04N 51°56' E 004°13'3 5.8
2014-May-27 10:32N 51°54' E 004°16'3 5.6
2014-May-27 10:04N 51°54' E 004°21'3 5.7
2014-May-27 09:32N 51°54' E 004°26'2 5.2
2014-May-27 09:04N 51°55' E 004°29'4 0.2
2014-May-26 16:05N 51°54' E 004°36'1 8.0
2014-May-26 16:00N 51°54' E 004°36'3 6.6
2014-May-26 15:33N 51°51' E 004°39'6 5.6
2014-May-26 14:34N 51°49' E 004°48'3 6.2
2014-May-26 14:04N 51°49' E 004°53'0 0.0
2014-May-26 13:33N 51°49' E 004°53'0 0.0
2014-May-26 13:03N 51°49' E 004°53'0 0.0
2014-May-26 12:33N 51°49' E 004°53'0 0.0
2014-May-26 12:05N 51°49' E 004°53'0 0.0
2014-May-26 11:33N 51°49' E 004°53'0 0.0
2014-May-26 11:04N 51°49' E 004°53'0 0.0
2014-May-26 10:33N 51°49' E 004°53'0 0.0
2014-May-26 10:00N 51°49' E 004°53'0 0.0
2014-May-26 09:32N 51°49' E 004°53'0 0.0
2014-May-26 09:03N 51°49' E 004°53'0 0.0
2014-May-26 08:33N 51°49' E 004°53'0 0.0
2014-May-26 08:05N 51°49' E 004°53'0 0.0
2014-May-26 07:33N 51°49' E 004°53'0 0.0
2014-May-26 07:04N 51°49' E 004°53'0 0.0
2014-May-26 06:32N 51°49' E 004°53'0 0.0
2014-May-26 06:04N 51°49' E 004°53'0 0.0
2014-May-26 05:05N 51°49' E 004°53'0 0.0
2014-May-26 04:33N 51°49' E 004°53'0 0.0
2014-May-26 04:04N 51°49' E 004°53'0 0.0
2014-May-26 03:32N 51°49' E 004°53'0 0.0
2014-May-26 03:03N 51°49' E 004°53'0 0.0
2014-May-26 02:33N 51°49' E 004°53'0 0.0
2014-May-26 02:04N 51°49' E 004°53'0 0.0
2014-May-26 01:33N 51°49' E 004°53'0 0.0
2014-May-26 01:03N 51°49' E 004°53'0 0.0
2014-May-26 00:31N 51°49' E 004°53'0 0.0
2014-May-26 00:05N 51°49' E 004°53'0 0.0
2014-May-25 23:32N 51°49' E 004°53'0 0.0
2014-May-25 23:18N 51°49' E 004°53'0 0.0
2014-May-25 22:33N 51°49' E 004°53'0 0.0
2014-May-25 21:30N 51°49' E 004°53'0 0.0
2014-May-25 20:33N 51°49' E 004°53'0 0.0
2014-May-25 19:33N 51°49' E 004°53'0 0.0
2014-May-25 18:33N 51°49' E 004°53'0 0.0
2014-May-25 17:33N 51°49' E 004°53'0 0.0
2014-May-25 16:20N 51°49' E 004°53'0 0.0
2014-May-25 15:33N 51°49' E 004°53'0 0.0
2014-May-25 14:33N 51°49' E 004°53'0 0.0
2014-May-25 13:33N 51°49' E 004°53'  
Track history (hours):
 
Tides and Currents Weather Stations Pressure Air Temp Water Temp Dewpoint Dewpoint Depression Visibility Wind Speed Wind Dir Waves Ship Positions

Gouwestroom

Last reported at 2014-Jun-04 13:27 UTC. Time now 2014-Jul-25 13:42 UTC.
Position N 51°49' E 004°53'.
Warning: this ship's position is 51 days out of date.

Length 20 m; draft 2.4 m.

Type: Tug. MMSI: 246166000.

Date/timePositionNaut miles runAvg speedWind from/ knotsBaromVisibWave heightAir tempDewpointWater temp
2014-Jun-04 13:27N 51°49' E 004°53'0 0.0
2014-Jun-04 12:30N 51°49' E 004°53'0 0.0
2014-Jun-04 11:33N 51°49' E 004°53'0 0.0
2014-Jun-04 10:19N 51°49' E 004°53'0 0.0
2014-Jun-04 09:33N 51°49' E 004°53'0 0.0
2014-Jun-04 08:07N 51°49' E 004°53'0 0.0
2014-Jun-04 07:33N 51°49' E 004°53'0 0.0
2014-Jun-04 06:33N 51°49' E 004°53'0 0.0
2014-Jun-04 05:32N 51°49' E 004°53'0 0.0
2014-Jun-04 04:33N 51°49' E 004°53'0 0.0
2014-Jun-04 03:32N 51°49' E 004°53'0 0.0
2014-Jun-04 02:33N 51°49' E 004°53'0 0.0
2014-Jun-04 01:33N 51°49' E 004°53'0 0.0
2014-Jun-04 00:33N 51°49' E 004°53'0 0.0
2014-Jun-03 23:33N 51°49' E 004°53'0 0.0
2014-Jun-03 22:33N 51°49' E 004°53'0 0.0
2014-Jun-03 21:33N 51°49' E 004°53'0 0.0
2014-Jun-03 20:32N 51°49' E 004°53'0 0.0
2014-Jun-03 19:33N 51°49' E 004°53'0 0.0
2014-Jun-03 18:33N 51°49' E 004°53'0 0.0
2014-Jun-03 17:31N 51°49' E 004°53'0 0.0
2014-Jun-03 14:05N 51°49' E 004°53'0 0.0
2014-Jun-03 13:33N 51°49' E 004°53'0 0.0
2014-Jun-03 12:33N 51°49' E 004°53'0 0.0
2014-Jun-03 11:16N 51°49' E 004°53'0 0.0
2014-Jun-03 10:32N 51°49' E 004°53'0 0.0
2014-Jun-03 09:30N 51°49' E 004°53'0 0.0
2014-Jun-03 08:15N 51°49' E 004°53'0 0.0
2014-Jun-03 07:17N 51°49' E 004°53'0 0.0
2014-Jun-03 05:28N 51°49' E 004°53'0 0.0
2014-Jun-03 04:28N 51°49' E 004°53'1 0.8
2014-Jun-03 03:33N 51°49' E 004°51'0 0.3
2014-Jun-03 02:33N 51°49' E 004°51'6 4.2
2014-Jun-03 01:09N 51°49' E 004°41'2 3.4
2014-Jun-03 00:32N 51°51' E 004°40'4 3.7
2014-Jun-02 23:34N 51°54' E 004°36'3 3.3
2014-Jun-02 22:33N 51°55' E 004°31'4 3.8
2014-Jun-02 21:34N 51°54' E 004°25'4 4.2
2014-Jun-02 20:34N 51°54' E 004°18'4 4.1
2014-Jun-02 19:33N 51°56' E 004°12'5 4.7
2014-Jun-02 18:34N 51°59' E 004°06'35 5.8
2014-Jun-02 12:33N 51°52' E 003°10'29 4.9
2014-Jun-02 06:32N 51°38' E 002°28'6 5.8
2014-Jun-02 05:33N 51°34' E 002°23'6 6.2
2014-Jun-02 04:32N 51°29' E 002°16'6 6.4
2014-Jun-02 03:33N 51°23' E 002°12'9 6.9
2014-Jun-02 02:17N 51°16' E 002°05'6 7.1
2014-Jun-02 01:27N 51°12' E 001°58'6 6.4
2014-Jun-02 00:31N 51°08' E 001°50'9 4.7
2014-Jun-01 22:29N 51°01' E 001°40'6 2.8
2014-Jun-01 20:30N 50°57' E 001°34'  
2014-May-29 18:18N 50°34' W 000°46'9 7.9
2014-May-29 17:11N 50°40' W 000°56'5 7.8
2014-May-29 16:33N 50°43' W 001°02'8 7.8
2014-May-29 15:33N 50°46' W 001°14'7 6.5
2014-May-29 14:34N 50°51' W 001°20'4 1.2
2014-May-29 11:33N 50°54' W 001°24'3 2.6
2014-May-29 10:33N 50°51' W 001°21'6 6.0
2014-May-29 09:34N 50°48' W 001°14'6 5.5
2014-May-29 08:34N 50°45' W 001°06'4 4.1
2014-May-29 07:34N 50°43' W 001°00'4 4.2
2014-May-29 06:33N 50°41' W 000°55'4 4.2
2014-May-29 05:33N 50°38' W 000°49'6 5.6
2014-May-29 04:33N 50°37' W 000°41'4 5.0
2014-May-29 03:51N 50°37' W 000°35'2 6.9
2014-May-29 03:33N 50°36' W 000°32'27 6.6
2014-May-28 23:30N 50°34' E 000°10'5 5.0
2014-May-28 22:33N 50°36' E 000°17'4 4.0
2014-May-28 21:33N 50°37' E 000°23'3 3.2
2014-May-28 20:33N 50°38' E 000°28'4 3.6
2014-May-28 19:33N 50°39' E 000°33'5 4.7
2014-May-28 18:33N 50°41' E 000°40'6 6.2
2014-May-28 17:33N 50°45' E 000°48'7 6.8
2014-May-28 16:31N 50°49' E 000°57'23 4.6
2014-May-28 11:32N 51°03' E 001°25'3 3.2
2014-May-28 10:33N 51°05' E 001°29'5 4.8
2014-May-28 09:33N 51°08' E 001°35'7 6.6
2014-May-28 08:33N 51°13' E 001°43'95 5.1
2014-May-27 14:04N 52°02' E 003°53'3 5.0
2014-May-27 13:31N 52°01' E 003°57'2 4.5
2014-May-27 13:02N 52°01' E 003°60'2 3.7
2014-May-27 12:24N 51°59' E 004°03'3 4.9
2014-May-27 11:53N 51°59' E 004°07'2 4.7
2014-May-27 11:33N 51°58' E 004°09'3 5.2
2014-May-27 11:04N 51°56' E 004°13'3 5.8
2014-May-27 10:32N 51°54' E 004°16'3 5.6
2014-May-27 10:04N 51°54' E 004°21'3 5.7
2014-May-27 09:32N 51°54' E 004°26'2 5.2
2014-May-27 09:04N 51°55' E 004°29'4 0.2
2014-May-26 16:05N 51°54' E 004°36'1 8.0
2014-May-26 16:00N 51°54' E 004°36'3 6.6
2014-May-26 15:33N 51°51' E 004°39'6 5.6
2014-May-26 14:34N 51°49' E 004°48'3 6.2
2014-May-26 14:04N 51°49' E 004°53'0 0.0
2014-May-26 13:33N 51°49' E 004°53'0 0.0
2014-May-26 13:03N 51°49' E 004°53'0 0.0
2014-May-26 12:33N 51°49' E 004°53'0 0.0
2014-May-26 12:05N 51°49' E 004°53'0 0.0
2014-May-26 11:33N 51°49' E 004°53'0 0.0
2014-May-26 11:04N 51°49' E 004°53'0 0.0
2014-May-26 10:33N 51°49' E 004°53'0 0.0
2014-May-26 10:00N 51°49' E 004°53'0 0.0
2014-May-26 09:32N 51°49' E 004°53'0 0.0
2014-May-26 09:03N 51°49' E 004°53'0 0.0
2014-May-26 08:33N 51°49' E 004°53'0 0.0
2014-May-26 08:05N 51°49' E 004°53'0 0.0
2014-May-26 07:33N 51°49' E 004°53'0 0.0
2014-May-26 07:04N 51°49' E 004°53'0 0.0
2014-May-26 06:32N 51°49' E 004°53'0 0.0
2014-May-26 06:04N 51°49' E 004°53'0 0.0
2014-May-26 05:05N 51°49' E 004°53'0 0.0
2014-May-26 04:33N 51°49' E 004°53'0 0.0
2014-May-26 04:04N 51°49' E 004°53'0 0.0
2014-May-26 03:32N 51°49' E 004°53'0 0.0
2014-May-26 03:03N 51°49' E 004°53'0 0.0
2014-May-26 02:33N 51°49' E 004°53'0 0.0
2014-May-26 02:04N 51°49' E 004°53'0 0.0
2014-May-26 01:33N 51°49' E 004°53'0 0.0
2014-May-26 01:03N 51°49' E 004°53'0 0.0
2014-May-26 00:31N 51°49' E 004°53'0 0.0
2014-May-26 00:05N 51°49' E 004°53'0 0.0
2014-May-25 23:32N 51°49' E 004°53'0 0.0
2014-May-25 23:18N 51°49' E 004°53'0 0.0
2014-May-25 22:33N 51°49' E 004°53'0 0.0
2014-May-25 21:30N 51°49' E 004°53'0 0.0
2014-May-25 20:33N 51°49' E 004°53'0 0.0
2014-May-25 19:33N 51°49' E 004°53'0 0.0
2014-May-25 18:33N 51°49' E 004°53'0 0.0
2014-May-25 17:33N 51°49' E 004°53'0 0.0
2014-May-25 16:20N 51°49' E 004°53'0 0.0
2014-May-25 15:33N 51°49' E 004°53'0 0.0
2014-May-25 14:33N 51°49' E 004°53'0 0.0
2014-May-25 13:33N 51°49' E 004°53'  

Dump ship's entire track history